TimeCST,TemperatureF,Dew PointF,Humidity,Sea Level PressureIn,VisibilityMPH,Wind Direction,Wind SpeedMPH,Gust SpeedMPH,PrecipitationIn,Events,Conditions,WindDirDegrees,DateUTC
12:12 AM,38.7,31.8,76,30.07,10.0,South,6.9,-,N/A,,Unknown,170,2012-11-08 06:12:00
12:32 AM,38.3,31.6,77,30.07,10.0,SSE,5.8,-,N/A,,Unknown,160,2012-11-08 06:32:00
12:52 AM,37.9,31.5,77,30.07,10.0,South,6.9,-,N/A,,Unknown,170,2012-11-08 06:52:00
1:12 AM,37.8,31.3,77,30.06,10.0,South,6.9,-,N/A,,Unknown,170,2012-11-08 07:12:00
1:32 AM,37.4,31.3,79,30.06,10.0,SSE,6.9,-,N/A,,Unknown,160,2012-11-08 07:32:00
1:52 AM,36.9,31.5,81,30.06,10.0,South,5.8,-,N/A,,Unknown,170,2012-11-08 07:52:00
2:12 AM,36.9,31.1,80,30.05,10.0,SSE,5.8,-,N/A,,Unknown,160,2012-11-08 08:12:00
2:32 AM,36.9,31.1,80,30.04,10.0,SSE,5.8,-,N/A,,Unknown,160,2012-11-08 08:32:00
2:52 AM,36.5,30.9,80,30.04,10.0,SSE,4.6,-,N/A,,Unknown,160,2012-11-08 08:52:00
3:12 AM,36.5,30.9,80,30.03,10.0,SSE,5.8,-,N/A,,Unknown,160,2012-11-08 09:12:00
3:32 AM,36.5,30.9,80,30.02,10.0,South,6.9,-,N/A,,Unknown,170,2012-11-08 09:32:00
3:52 AM,36.7,31.1,80,30.02,10.0,SSE,8.1,-,N/A,,Unknown,160,2012-11-08 09:52:00
4:12 AM,36.3,31.1,81,30.02,10.0,SSE,5.8,-,N/A,,Unknown,160,2012-11-08 10:12:00
4:32 AM,36.0,31.1,82,30.01,10.0,SSE,5.8,-,N/A,,Unknown,150,2012-11-08 10:32:00
4:52 AM,35.8,31.1,83,30.00,10.0,SSE,4.6,-,N/A,,Unknown,160,2012-11-08 10:52:00
5:12 AM,35.8,31.1,83,30.00,10.0,SSE,6.9,-,N/A,,Unknown,160,2012-11-08 11:12:00
5:32 AM,36.0,31.5,84,30.00,10.0,SSE,4.6,-,N/A,,Unknown,150,2012-11-08 11:32:00
5:52 AM,35.8,31.6,85,29.99,10.0,SSE,4.6,-,N/A,,Unknown,150,2012-11-08 11:52:00
6:12 AM,35.6,31.6,85,29.98,10.0,SSE,5.8,-,N/A,,Unknown,150,2012-11-08 12:12:00
6:52 AM,36.0,31.8,85,29.98,10.0,SSE,5.8,-,N/A,,Clear,160,2012-11-08 12:52:00
7:12 AM,36.1,31.8,84,29.98,10.0,SSE,5.8,-,N/A,,Clear,150,2012-11-08 13:12:00
7:32 AM,36.7,32.0,83,29.98,10.0,SSE,8.1,-,N/A,,Unknown,160,2012-11-08 13:32:00
7:52 AM,37.6,32.0,80,29.99,10.0,SSE,6.9,-,N/A,,Unknown,150,2012-11-08 13:52:00
8:12 AM,38.3,32.2,79,29.99,10.0,SSE,4.6,-,N/A,,Unknown,160,2012-11-08 14:12:00
8:32 AM,38.3,32.2,79,29.98,10.0,SE,5.8,-,N/A,,Unknown,140,2012-11-08 14:32:00
8:52 AM,40.1,32.9,75,29.97,10.0,SSE,8.1,-,N/A,,Unknown,150,2012-11-08 14:52:00
9:12 AM,40.6,33.3,75,29.97,10.0,SSE,8.1,-,N/A,,Unknown,160,2012-11-08 15:12:00
9:32 AM,42.1,33.8,72,29.97,10.0,SSE,9.2,-,N/A,,Unknown,160,2012-11-08 15:32:00
9:52 AM,43.7,34.5,70,29.96,10.0,SSE,9.2,16.1,N/A,,Unknown,150,2012-11-08 15:52:00
10:12 AM,47.1,35.6,64,29.96,10.0,South,8.1,17.3,N/A,,Unknown,180,2012-11-08 16:12:00
10:32 AM,47.3,35.6,64,29.96,10.0,South,12.7,17.3,N/A,,Clear,180,2012-11-08 16:32:00
10:52 AM,49.6,36.0,59,29.95,10.0,South,13.8,19.6,N/A,,Clear,170,2012-11-08 16:52:00
11:12 AM,51.8,36.9,57,29.95,10.0,South,12.7,17.3,N/A,,Clear,180,2012-11-08 17:12:00
11:32 AM,53.6,36.1,52,29.94,10.0,South,12.7,16.1,N/A,,Clear,190,2012-11-08 17:32:00
11:52 AM,53.8,34.7,48,29.93,10.0,SSW,17.3,23.0,N/A,,Clear,200,2012-11-08 17:52:00
12:12 PM,54.3,36.0,50,29.93,10.0,South,12.7,-,N/A,,Clear,190,2012-11-08 18:12:00
12:32 PM,54.5,35.8,49,29.93,10.0,SSW,16.1,20.7,N/A,,Clear,200,2012-11-08 18:32:00
12:52 PM,54.9,36.3,50,29.92,10.0,SSW,10.4,-,N/A,,Clear,210,2012-11-08 18:52:00
1:12 PM,55.0,36.9,50,29.92,10.0,SSW,9.2,19.6,N/A,,Clear,200,2012-11-08 19:12:00
1:32 PM,54.9,37.0,51,29.92,10.0,SSW,5.8,-,N/A,,Clear,210,2012-11-08 19:32:00
1:52 PM,56.3,36.1,47,29.91,10.0,SW,11.5,16.1,N/A,,Clear,230,2012-11-08 19:52:00
2:12 PM,54.7,35.8,49,29.91,10.0,WSW,9.2,-,N/A,,Clear,240,2012-11-08 20:12:00
2:32 PM,54.9,36.5,50,29.91,10.0,SW,8.1,-,N/A,,Clear,230,2012-11-08 20:32:00
2:52 PM,55.4,36.7,49,29.92,10.0,West,6.9,-,N/A,,Clear,260,2012-11-08 20:52:00
3:12 PM,54.7,36.7,51,29.92,10.0,WSW,6.9,-,N/A,,Clear,250,2012-11-08 21:12:00
3:32 PM,54.9,36.3,50,29.93,10.0,West,6.9,-,N/A,,Clear,270,2012-11-08 21:32:00
3:52 PM,54.7,36.5,50,29.94,10.0,West,4.6,-,N/A,,Clear,270,2012-11-08 21:52:00
4:12 PM,53.8,36.5,52,29.94,10.0,West,4.6,-,N/A,,Clear,270,2012-11-08 22:12:00
4:32 PM,53.4,36.5,53,29.95,10.0,West,3.5,-,N/A,,Clear,280,2012-11-08 22:32:00
4:52 PM,52.3,36.3,54,29.95,10.0,Calm,Calm,-,N/A,,Clear,0,2012-11-08 22:52:00
5:12 PM,50.0,36.3,59,29.95,10.0,Calm,Calm,-,N/A,,Clear,0,2012-11-08 23:12:00
5:32 PM,47.8,36.5,65,29.96,10.0,Calm,Calm,-,N/A,,Clear,0,2012-11-08 23:32:00
5:52 PM,47.1,36.1,66,29.96,10.0,Calm,Calm,-,N/A,,Clear,0,2012-11-08 23:52:00
6:12 PM,45.5,36.3,70,29.97,10.0,Calm,Calm,-,N/A,,Clear,0,2012-11-09 00:12:00
6:32 PM,45.0,36.1,71,29.97,10.0,Calm,Calm,-,N/A,,Clear,0,2012-11-09 00:32:00
6:52 PM,43.0,36.0,76,29.97,10.0,Calm,Calm,-,N/A,,Clear,0,2012-11-09 00:52:00
7:12 PM,43.3,36.0,75,29.98,10.0,Calm,Calm,-,N/A,,Clear,0,2012-11-09 01:12:00
7:32 PM,42.6,36.0,77,29.98,10.0,Calm,Calm,-,N/A,,Clear,0,2012-11-09 01:32:00
7:52 PM,41.2,35.4,80,29.98,10.0,Calm,Calm,-,N/A,,Clear,0,2012-11-09 01:52:00
8:12 PM,41.5,35.8,80,29.98,10.0,Calm,Calm,-,N/A,,Clear,0,2012-11-09 02:12:00
8:32 PM,43.3,36.1,76,29.98,10.0,NNE,4.6,-,N/A,,Clear,30,2012-11-09 02:32:00
8:52 PM,45.3,35.6,69,29.99,10.0,North,3.5,-,N/A,,Clear,10,2012-11-09 02:52:00
9:12 PM,44.8,35.2,69,29.99,10.0,North,3.5,-,N/A,,Clear,360,2012-11-09 03:12:00
9:32 PM,44.8,35.2,69,30.00,10.0,Calm,Calm,-,N/A,,Clear,0,2012-11-09 03:32:00
9:52 PM,45.5,35.1,67,30.00,10.0,Calm,Calm,-,N/A,,Clear,0,2012-11-09 03:52:00
10:12 PM,45.0,34.7,67,30.00,10.0,Calm,Calm,-,N/A,,Clear,0,2012-11-09 04:12:00
10:32 PM,45.0,34.7,67,30.00,10.0,North,3.5,-,N/A,,Clear,360,2012-11-09 04:32:00
10:52 PM,45.3,34.7,66,30.00,10.0,Calm,Calm,-,N/A,,Clear,0,2012-11-09 04:52:00
11:12 PM,44.2,34.5,69,30.00,10.0,Calm,Calm,-,N/A,,Clear,0,2012-11-09 05:12:00
11:32 PM,43.0,34.7,73,30.01,10.0,North,3.5,-,N/A,,Clear,10,2012-11-09 05:32:00
11:52 PM,42.1,34.3,74,30.02,10.0,North,4.6,-,N/A,,Clear,350,2012-11-09 05:52:00